Time;durP1;ratioP1;P1;durP2;ratioP2;P2;SDS_P1;SDS_P2;PMS_P1;PMS_P2;Temp;Humidity;BMP_temperature;BMP_pressure;BME280_temperature;BME280_humidity;BME280_pressure;Samples;Min_cycle;Max_cycle;Signal;HPM_P1;HPM_P2
2023/11/16 00:00:18;;;;;;;4.80;3.10;;;;;;;6.33;69.81;96973.98;104664;1272;99307;-72
2023/11/16 00:03:06;;;;;;;3.00;2.60;;;;;;;6.35;70.19;96980.31;105016;1272;97999;-72
2023/11/16 00:05:35;;;;;;;4.70;2.60;;;;;;;6.38;70.20;96979.02;105046;1259;97039;-74
2023/11/16 00:08:06;;;;;;;4.10;2.50;;;;;;;6.40;70.07;96978.20;104706;1263;110548;-73
2023/11/16 00:10:35;;;;;;;6.40;2.70;;;;;;;6.41;69.97;96977.04;104713;1260;101633;-73
2023/11/16 00:13:04;;;;;;;3.40;2.60;;;;;;;6.43;70.09;96977.54;104676;1261;101473;-73
2023/11/16 00:15:33;;;;;;;3.20;2.40;;;;;;;6.44;69.86;96980.73;105022;1254;96802;-74
2023/11/16 00:18:05;;;;;;;5.20;2.80;;;;;;;6.43;69.77;96985.14;104967;1256;97048;-73
2023/11/16 00:20:35;;;;;;;4.60;2.70;;;;;;;6.44;69.93;96983.45;105033;1256;102194;-73
2023/11/16 00:23:04;;;;;;;6.00;3.00;;;;;;;6.44;69.85;96988.73;104801;1260;101339;-73
2023/11/16 00:25:32;;;;;;;6.70;3.60;;;;;;;6.43;69.72;96993.19;105021;1256;100222;-72
2023/11/16 00:28:00;;;;;;;9.70;3.40;;;;;;;6.41;69.66;96995.55;104997;1275;97935;-72
2023/11/16 00:30:28;;;;;;;6.40;3.10;;;;;;;6.41;69.74;96993.03;104719;1262;97930;-72
2023/11/16 00:32:56;;;;;;;5.80;3.10;;;;;;;6.40;69.65;96997.83;105025;1264;101829;-72
2023/11/16 00:35:23;;;;;;;5.80;3.40;;;;;;;6.38;69.77;96998.69;105029;1267;101173;-72
2023/11/16 00:37:52;;;;;;;4.20;3.00;;;;;;;6.39;69.88;97000.34;104978;1266;100116;-72
2023/11/16 00:40:22;;;;;;;3.70;2.50;;;;;;;6.36;69.72;97004.73;105062;1254;96907;-72
2023/11/16 00:42:51;;;;;;;4.70;3.40;;;;;;;6.32;69.91;97006.39;104782;1276;97909;-72
2023/11/16 00:45:19;;;;;;;3.50;2.70;;;;;;;6.32;69.99;97010.79;105051;1254;100958;-72
2023/11/16 00:47:47;;;;;;;4.10;2.70;;;;;;;6.30;70.20;97009.37;105011;1254;101504;-72
2023/11/16 00:50:15;;;;;;;4.20;2.60;;;;;;;6.29;70.26;97006.14;104890;1256;108328;-72
2023/11/16 00:52:47;;;;;;;6.60;2.70;;;;;;;6.28;70.33;97011.92;104971;1257;96550;-72
2023/11/16 00:55:17;;;;;;;5.20;2.80;;;;;;;6.28;70.38;97013.23;105055;1257;97996;-72
2023/11/16 00:57:47;;;;;;;5.20;3.10;;;;;;;6.25;70.34;97014.63;104996;1266;101712;-72
2023/11/16 01:00:17;;;;;;;7.90;2.50;;;;;;;6.25;70.45;97022.17;105017;1267;101691;-72
2023/11/16 01:02:48;;;;;;;4.80;2.90;;;;;;;6.25;70.43;97021.77;104757;1258;100004;-79
2023/11/16 01:05:17;;;;;;;4.20;2.60;;;;;;;6.24;70.38;97021.91;105058;1257;96567;-73
2023/11/16 01:07:45;;;;;;;5.50;3.00;;;;;;;6.26;70.43;97025.98;105026;1257;98394;-74
2023/11/16 01:10:17;;;;;;;4.70;2.90;;;;;;;6.27;70.68;97025.53;104961;1268;101841;-74
2023/11/16 01:12:45;;;;;;;4.80;3.00;;;;;;;6.27;70.75;97019.67;105029;1256;100042;-74
2023/11/16 01:15:14;;;;;;;7.40;3.00;;;;;;;6.25;70.92;97021.23;104937;1254;99760;-74
2023/11/16 01:17:45;;;;;;;4.20;2.60;;;;;;;6.24;71.00;97024.96;105025;1256;96670;-74
2023/11/16 01:20:18;;;;;;;5.30;2.90;;;;;;;6.26;71.26;97030.06;105006;1257;97086;-74
2023/11/16 01:23:00;;;;;;;5.60;3.00;;;;;;;6.28;71.31;97033.36;104704;1262;102195;-79
2023/11/16 01:25:30;;;;;;;4.50;3.10;;;;;;;6.29;71.60;97040.95;104715;1254;101330;-78
2023/11/16 01:27:58;;;;;;;5.10;2.60;;;;;;;6.28;71.65;97037.89;104949;1261;98423;-79
2023/11/16 01:30:26;;;;;;;6.40;3.20;;;;;;;6.28;71.63;97039.25;104944;1257;96692;-78
2023/11/16 01:32:53;;;;;;;4.70;2.80;;;;;;;6.28;71.72;97036.52;104962;1253;96654;-72
2023/11/16 01:35:21;;;;;;;4.60;3.30;;;;;;;6.27;71.88;97035.88;104992;1276;102194;-72
2023/11/16 01:37:52;;;;;;;4.30;3.00;;;;;;;6.26;72.17;97035.87;104983;1257;101925;-72
2023/11/16 01:40:19;;;;;;;3.40;2.40;;;;;;;6.22;72.41;97034.50;104725;1253;100026;-72
2023/11/16 01:42:47;;;;;;;3.80;2.80;;;;;;;6.21;72.42;97033.83;105008;1257;97517;-72
2023/11/16 01:45:35;;;;;;;5.20;2.80;;;;;;;6.19;72.48;97034.89;104996;1257;97061;-72
2023/11/16 01:48:06;;;;;;;4.90;2.60;;;;;;;6.16;72.28;97034.25;104961;1264;100890;-72
2023/11/16 01:50:36;;;;;;;4.50;2.90;;;;;;;6.15;72.19;97038.95;104614;1254;100380;-72
2023/11/16 01:53:10;;;;;;;6.60;2.80;;;;;;;6.14;72.20;97044.09;104676;1262;100114;-72
2023/11/16 01:55:46;;;;;;;4.60;3.00;;;;;;;6.12;72.32;97042.64;104791;1260;97894;-72
2023/11/16 01:58:15;;;;;;;5.10;2.70;;;;;;;6.09;72.31;97040.38;104988;1257;97495;-72
2023/11/16 02:00:44;;;;;;;4.50;3.00;;;;;;;6.07;72.42;97039.80;105009;1256;102451;-75
2023/11/16 02:03:12;;;;;;;3.90;2.70;;;;;;;6.06;72.37;97040.30;104999;1254;100674;-74
2023/11/16 02:05:41;;;;;;;4.20;2.70;;;;;;;6.07;72.28;97039.56;104914;1257;99965;-74
2023/11/16 02:08:09;;;;;;;4.20;2.50;;;;;;;6.08;72.31;97040.73;104655;1262;97301;-74
2023/11/16 02:10:39;;;;;;;3.00;2.40;;;;;;;6.08;72.35;97047.52;104995;1253;97605;-74
2023/11/16 02:13:18;;;;;;;2.70;2.10;;;;;;;6.08;72.24;97048.52;104737;1260;100724;-73
2023/11/16 02:15:46;;;;;;;4.90;2.90;;;;;;;6.08;72.24;97052.44;104755;1264;101648;-74
2023/11/16 02:18:16;;;;;;;5.90;3.30;;;;;;;6.11;72.38;97053.75;104974;1257;99927;-74
2023/11/16 02:20:46;;;;;;;5.20;2.90;;;;;;;6.13;72.21;97050.31;104678;1263;97972;-74
2023/11/16 02:23:15;;;;;;;5.20;3.00;;;;;;;6.13;72.24;97050.10;105109;1256;97070;-79
2023/11/16 02:25:44;;;;;;;5.80;3.30;;;;;;;6.12;72.32;97051.79;104730;1259;102215;-80
2023/11/16 02:28:13;;;;;;;5.30;3.40;;;;;;;6.12;72.26;97051.12;104954;1254;100054;-81
2023/11/16 02:30:41;;;;;;;5.30;2.60;;;;;;;6.12;72.42;97051.48;104356;1268;100029;-73
2023/11/16 02:33:09;;;;;;;4.20;2.70;;;;;;;6.16;72.40;97051.39;104964;1253;97305;-74
2023/11/16 02:35:36;;;;;;;4.10;2.80;;;;;;;6.19;72.39;97054.55;104978;1256;98023;-74
2023/11/16 02:38:06;;;;;;;4.00;2.50;;;;;;;6.18;72.21;97058.13;105015;1266;100948;-74
2023/11/16 02:40:34;;;;;;;3.60;2.50;;;;;;;6.16;72.32;97055.45;104779;1259;101669;-74
2023/11/16 02:43:03;;;;;;;3.30;2.40;;;;;;;6.16;72.25;97054.73;104973;1254;98843;-74
2023/11/16 02:45:32;;;;;;;4.70;2.60;;;;;;;6.13;72.23;97058.27;105033;1254;96685;-74
2023/11/16 02:48:01;;;;;;;3.70;2.60;;;;;;;6.13;72.24;97059.79;104754;1262;97878;-73
2023/11/16 02:50:29;;;;;;;4.10;2.60;;;;;;;6.13;72.24;97065.61;104984;1254;100995;-74
2023/11/16 02:52:57;;;;;;;4.60;2.60;;;;;;;6.13;72.19;97066.55;105020;1257;100029;-73
2023/11/16 02:55:24;;;;;;;3.70;2.20;;;;;;;6.10;72.08;97068.83;104937;1257;100144;-73
2023/11/16 02:57:57;;;;;;;3.50;2.00;;;;;;;6.08;72.12;97073.88;104980;1261;97868;-73
2023/11/16 03:00:25;;;;;;;2.60;1.90;;;;;;;6.10;72.21;97074.97;104996;1259;97001;-79
2023/11/16 03:02:53;;;;;;;5.80;2.30;;;;;;;6.12;72.31;97074.91;105000;1256;102265;-80
2023/11/16 03:05:25;;;;;;;4.10;2.30;;;;;;;6.15;72.29;97080.80;105002;1254;101480;-80
2023/11/16 03:07:53;;;;;;;3.70;2.20;;;;;;;6.17;72.22;97078.78;104580;1261;97538;-79
2023/11/16 03:10:23;;;;;;;2.20;1.80;;;;;;;6.18;72.36;97075.61;105055;1256;97870;-80
2023/11/16 03:12:52;;;;;;;3.50;2.30;;;;;;;6.18;72.27;97075.40;105001;1257;96548;-80
2023/11/16 03:15:22;;;;;;;2.40;2.10;;;;;;;6.19;72.34;97081.35;104989;1257;102101;-76
2023/11/16 03:17:50;;;;;;;4.70;2.20;;;;;;;6.19;72.30;97086.67;105000;1257;101424;-74
2023/11/16 03:20:18;;;;;;;3.10;2.30;;;;;;;6.19;72.28;97086.58;104981;1256;99049;-73
2023/11/16 03:22:45;;;;;;;3.30;2.50;;;;;;;6.20;72.17;97090.05;104954;1257;97209;-74
2023/11/16 03:25:14;;;;;;;3.60;2.30;;;;;;;6.19;72.46;97089.05;104979;1257;97080;-74
2023/11/16 03:27:42;;;;;;;4.60;2.30;;;;;;;6.19;72.61;97094.55;104961;1256;102198;-74
2023/11/16 03:30:10;;;;;;;5.30;2.20;;;;;;;6.19;72.72;97101.06;104934;1257;101666;-73
2023/11/16 03:32:37;;;;;;;3.40;1.90;;;;;;;6.14;72.68;97105.39;104972;1256;98978;-80
2023/11/16 03:35:06;;;;;;;3.50;2.10;;;;;;;6.12;72.67;97110.13;104942;1257;97389;-80
2023/11/16 03:37:33;;;;;;;4.30;2.10;;;;;;;6.11;72.93;97112.36;105002;1273;97064;-72
2023/11/16 03:40:02;;;;;;;3.10;1.90;;;;;;;6.09;72.97;97110.95;105006;1260;102211;-79
2023/11/16 03:42:29;;;;;;;4.30;2.40;;;;;;;6.07;73.22;97108.16;104953;1254;101299;-79
2023/11/16 03:44:57;;;;;;;4.50;2.10;;;;;;;6.05;73.35;97110.23;104939;1266;100274;-80
2023/11/16 03:47:25;;;;;;;3.90;2.60;;;;;;;6.03;73.50;97111.75;105015;1267;97885;-74
2023/11/16 03:49:53;;;;;;;3.30;2.10;;;;;;;6.01;73.53;97118.61;104961;1257;97102;-73
2023/11/16 03:52:20;;;;;;;4.10;2.50;;;;;;;5.98;73.61;97118.29;104999;1260;102158;-74
2023/11/16 03:54:48;;;;;;;7.40;2.80;;;;;;;5.93;73.63;97116.13;105056;1257;100145;-73
2023/11/16 03:57:16;;;;;;;3.70;2.40;;;;;;;5.91;73.88;97116.23;104962;1256;99346;-79
2023/11/16 03:59:43;;;;;;;3.30;2.20;;;;;;;5.91;74.10;97116.65;104994;1256;96595;-79
2023/11/16 04:02:11;;;;;;;2.60;2.20;;;;;;;5.90;74.16;97115.16;104979;1266;97142;-81
2023/11/16 04:04:39;;;;;;;5.10;2.40;;;;;;;5.89;74.21;97114.03;104991;1258;101323;-81
2023/11/16 04:07:06;;;;;;;3.40;2.60;;;;;;;5.88;74.19;97113.46;104687;1270;101381;-81
2023/11/16 04:09:37;;;;;;;3.30;2.40;;;;;;;5.87;74.38;97111.55;104585;1263;99661;-81
2023/11/16 04:12:05;;;;;;;3.60;2.60;;;;;;;5.86;74.45;97110.99;104643;1263;96606;-81
2023/11/16 04:14:33;;;;;;;5.90;3.30;;;;;;;5.85;74.62;97112.05;104715;1263;97178;-81
2023/11/16 04:17:00;;;;;;;6.90;2.70;;;;;;;5.84;74.78;97114.23;104585;1271;102194;-73
2023/11/16 04:19:28;;;;;;;4.10;2.30;;;;;;;5.84;74.82;97114.09;104601;1270;101460;-73
2023/11/16 04:21:59;;;;;;;4.40;2.40;;;;;;;5.81;74.76;97111.92;104468;1265;99134;-73
2023/11/16 04:24:28;;;;;;;3.90;2.60;;;;;;;5.79;74.87;97112.15;104464;1262;96902;-73
2023/11/16 04:26:57;;;;;;;3.40;2.40;;;;;;;5.81;75.17;97113.08;104621;1264;97144;-74
2023/11/16 04:29:24;;;;;;;4.10;2.80;;;;;;;5.81;75.11;97120.27;104586;1262;101283;-73
2023/11/16 04:31:52;;;;;;;5.70;3.10;;;;;;;5.82;75.30;97122.77;104625;1270;100335;-73
2023/11/16 04:34:20;;;;;;;5.40;3.30;;;;;;;5.83;75.30;97122.95;104537;1261;99481;-73
2023/11/16 04:36:48;;;;;;;5.50;3.20;;;;;;;5.84;75.45;97119.86;104541;1262;96814;-78
2023/11/16 04:39:17;;;;;;;4.50;2.90;;;;;;;5.83;75.53;97119.52;104805;1254;96969;-78
2023/11/16 04:41:46;;;;;;;6.20;3.60;;;;;;;5.82;75.61;97117.37;104998;1257;101056;-78
2023/11/16 04:44:14;;;;;;;4.70;3.00;;;;;;;5.79;75.61;97114.71;104983;1258;101287;-78
2023/11/16 04:46:48;;;;;;;4.90;3.60;;;;;;;5.78;75.73;97116.97;104690;1260;99932;-71
2023/11/16 04:49:17;;;;;;;5.50;3.30;;;;;;;5.77;75.94;97120.49;104982;1267;96590;-71
2023/11/16 04:51:46;;;;;;;8.20;3.60;;;;;;;5.77;76.03;97120.83;105051;1254;96728;-71
2023/11/16 04:54:14;;;;;;;4.80;3.40;;;;;;;5.77;76.24;97123.27;105024;1257;101255;-80
2023/11/16 04:56:42;;;;;;;5.20;3.40;;;;;;;5.78;76.19;97127.47;104995;1269;101105;-78
2023/11/16 04:59:10;;;;;;;4.90;3.40;;;;;;;5.80;76.31;97132.27;104939;1257;98874;-78
2023/11/16 05:01:38;;;;;;;6.70;3.90;;;;;;;5.81;76.49;97134.05;104788;1259;98031;-74
2023/11/16 05:04:07;;;;;;;6.70;3.00;;;;;;;5.81;76.47;97133.23;104976;1256;97015;-73
2023/11/16 05:06:40;;;;;;;4.70;3.50;;;;;;;5.79;76.44;97131.61;104830;1254;102213;-73
2023/11/16 05:09:10;;;;;;;5.20;3.70;;;;;;;5.77;76.37;97130.27;104592;1263;100797;-73
2023/11/16 05:11:38;;;;;;;6.40;3.50;;;;;;;5.77;76.25;97133.32;104976;1258;99577;-74
2023/11/16 05:14:05;;;;;;;4.60;3.40;;;;;;;5.80;76.26;97138.08;105027;1256;96600;-79
2023/11/16 05:16:33;;;;;;;5.80;3.50;;;;;;;5.78;76.12;97140.50;105008;1257;96567;-78
2023/11/16 05:19:01;;;;;;;6.30;3.50;;;;;;;5.77;75.87;97143.33;104985;1266;100783;-78
2023/11/16 05:21:28;;;;;;;4.60;3.10;;;;;;;5.78;75.71;97144.21;104946;1257;100315;-79
2023/11/16 05:23:56;;;;;;;4.30;2.40;;;;;;;5.80;75.83;97146.86;104979;1257;100060;-79
2023/11/16 05:26:25;;;;;;;3.80;2.70;;;;;;;5.80;75.95;97145.67;104660;1263;96728;-79
2023/11/16 05:28:53;;;;;;;2.70;1.70;;;;;;;5.77;76.31;97150.46;104974;1264;97179;-79
2023/11/16 05:31:21;;;;;;;3.00;1.80;;;;;;;5.70;76.57;97150.15;104967;1266;101395;-72
2023/11/16 05:33:49;;;;;;;2.80;2.20;;;;;;;5.59;77.02;97152.77;105048;1256;101614;-72
2023/11/16 05:36:17;;;;;;;3.90;2.20;;;;;;;5.50;77.19;97155.61;104937;1256;98776;-72
2023/11/16 05:38:45;;;;;;;3.60;2.60;;;;;;;5.47;77.18;97158.48;104960;1268;97596;-72
2023/11/16 05:41:13;;;;;;;3.70;2.90;;;;;;;5.49;77.13;97161.85;104992;1276;97086;-72
2023/11/16 05:43:41;;;;;;;10.90;4.80;;;;;;;5.51;77.29;97164.77;105075;1257;101808;-72
2023/11/16 05:46:08;;;;;;;10.10;4.90;;;;;;;5.54;77.24;97166.91;104972;1257;101315;-79
2023/11/16 05:48:36;;;;;;;12.20;5.00;;;;;;;5.57;77.50;97173.16;104928;1266;100071;-80
2023/11/16 05:51:04;;;;;;;12.00;5.00;;;;;;;5.56;77.58;97175.73;104982;1256;97543;-80
2023/11/16 05:53:33;;;;;;;5.30;3.00;;;;;;;5.55;77.75;97179.21;104997;1257;97176;-80
2023/11/16 05:56:01;;;;;;;12.40;4.50;;;;;;;5.52;77.54;97178.10;105019;1257;102326;-79
2023/11/16 05:58:29;;;;;;;8.50;3.90;;;;;;;5.49;77.69;97178.25;104992;1266;100346;-80
2023/11/16 06:00:56;;;;;;;8.40;3.40;;;;;;;5.47;77.85;97180.11;105021;1257;98573;-72
2023/11/16 06:03:27;;;;;;;5.00;3.60;;;;;;;5.44;77.99;97182.88;104943;1266;97586;-72
2023/11/16 06:05:57;;;;;;;4.90;4.10;;;;;;;5.42;78.19;97182.95;105039;1257;97142;-72
2023/11/16 06:08:25;;;;;;;6.60;5.40;;;;;;;5.41;78.42;97186.80;104589;1264;102162;-72
2023/11/16 06:10:52;;;;;;;7.90;5.60;;;;;;;5.38;78.47;97188.20;104813;1268;100435;-74
2023/11/16 06:13:22;;;;;;;8.50;5.90;;;;;;;5.39;78.56;97190.57;105052;1257;98671;-74
2023/11/16 06:15:52;;;;;;;7.20;5.70;;;;;;;5.40;78.73;97189.39;105152;1256;97475;-74
2023/11/16 06:18:20;;;;;;;6.80;5.70;;;;;;;5.38;78.69;97193.77;104711;1270;98400;-74
2023/11/16 06:20:48;;;;;;;6.50;5.50;;;;;;;5.38;78.70;97193.72;104675;1260;101368;-74
2023/11/16 06:23:16;;;;;;;7.10;6.30;;;;;;;5.39;78.91;97193.58;104938;1264;101422;-73
2023/11/16 06:25:44;;;;;;;6.80;5.80;;;;;;;5.40;79.07;97189.80;104937;1266;100312;-74
2023/11/16 06:28:11;;;;;;;10.10;6.50;;;;;;;5.40;79.14;97184.40;104974;1264;97133;-73
2023/11/16 06:30:40;;;;;;;7.60;6.00;;;;;;;5.39;79.16;97182.04;105033;1267;97083;-73
2023/11/16 06:33:08;;;;;;;5.50;4.90;;;;;;;5.38;79.22;97177.20;105019;1257;102302;-74
2023/11/16 06:35:35;;;;;;;5.80;4.40;;;;;;;5.39;79.18;97173.34;104922;1268;101051;-73
2023/11/16 06:38:04;;;;;;;7.00;4.60;;;;;;;5.39;79.26;97177.39;104945;1257;100128;-73
2023/11/16 06:40:31;;;;;;;7.40;5.30;;;;;;;5.39;79.43;97176.65;104861;1257;96567;-73
2023/11/16 06:42:59;;;;;;;9.30;6.30;;;;;;;5.41;79.41;97181.05;104964;1258;97489;-73
2023/11/16 06:45:28;;;;;;;12.50;7.00;;;;;;;5.44;79.46;97179.17;104997;1257;102450;-73
2023/11/16 06:48:00;;;;;;;8.90;6.30;;;;;;;5.46;79.49;97176.40;105080;1266;101378;-73
2023/11/16 06:50:28;;;;;;;8.30;6.90;;;;;;;5.48;79.51;97177.91;104671;1270;99868;-73
2023/11/16 06:52:56;;;;;;;9.70;6.90;;;;;;;5.49;79.52;97178.74;104969;1257;97190;-74
2023/11/16 06:55:26;;;;;;;11.50;7.30;;;;;;;5.49;79.57;97173.53;104640;1260;97768;-73
2023/11/16 06:57:53;;;;;;;9.90;6.50;;;;;;;5.54;79.64;97174.25;104517;1262;101219;-74
2023/11/16 07:00:21;;;;;;;8.20;5.50;;;;;;;5.55;79.52;97175.50;104665;1272;101568;-74
2023/11/16 07:02:49;;;;;;;6.10;5.50;;;;;;;5.55;79.42;97180.94;104781;1269;99082;-74
2023/11/16 07:05:17;;;;;;;10.80;7.50;;;;;;;5.54;79.57;97180.77;104648;1262;97391;-74
2023/11/16 07:07:45;;;;;;;18.60;11.10;;;;;;;5.54;79.51;97181.71;104719;1261;97245;-80
2023/11/16 07:10:15;;;;;;;21.60;12.20;;;;;;;5.55;79.50;97178.76;104696;1270;102236;-72
2023/11/16 07:12:43;;;;;;;15.50;8.70;;;;;;;5.55;79.57;97182.14;104559;1258;101409;-71
2023/11/16 07:15:12;;;;;;;13.10;7.40;;;;;;;5.56;79.67;97182.75;104655;1270;99823;-72
2023/11/16 07:17:40;;;;;;;11.00;6.10;;;;;;;5.57;79.62;97182.10;104712;1264;96579;-72
2023/11/16 07:20:11;;;;;;;10.10;5.70;;;;;;;5.60;79.58;97177.77;104559;1258;97520;-72
2023/11/16 07:22:40;;;;;;;6.50;4.70;;;;;;;5.62;79.65;97178.02;104610;1262;101466;-72
2023/11/16 07:25:09;;;;;;;8.70;5.00;;;;;;;5.62;79.61;97176.91;104749;1264;100390;-72
2023/11/16 07:27:39;;;;;;;10.00;5.90;;;;;;;5.62;79.63;97180.88;104890;1267;99263;-72
2023/11/16 07:30:08;;;;;;;8.20;6.50;;;;;;;5.63;79.66;97180.59;105028;1257;97237;-80
2023/11/16 07:32:36;;;;;;;11.00;8.00;;;;;;;5.65;79.67;97184.86;104972;1266;97092;-80
2023/11/16 07:35:14;;;;;;;9.20;7.00;;;;;;;5.66;79.60;97182.23;104928;1264;102188;-80
2023/11/16 07:37:47;;;;;;;7.60;6.00;;;;;;;5.66;79.68;97185.55;105002;1267;101357;-80
2023/11/16 07:40:17;;;;;;;;;;;;;;;5.69;79.73;97183.36;104783;1262;99975;-80
2023/11/16 07:42:46;;;;;;;8.80;6.50;;;;;;;5.70;79.95;97186.89;104960;1256;97260;-80
2023/11/16 07:45:16;;;;;;;14.80;7.60;;;;;;;5.71;79.92;97190.90;105126;1254;97168;-80
2023/11/16 07:47:47;;;;;;;9.70;6.90;;;;;;;5.72;79.93;97187.50;104719;1262;102292;-80
2023/11/16 07:50:15;;;;;;;7.70;6.20;;;;;;;5.71;79.77;97182.95;104464;1265;101569;-80
2023/11/16 07:52:44;;;;;;;8.60;5.80;;;;;;;5.70;79.58;97183.98;104593;1263;100040;-79
2023/11/16 07:55:18;;;;;;;9.90;7.00;;;;;;;5.72;79.69;97181.69;104535;1264;97469;-79
2023/11/16 07:57:48;;;;;;;10.60;6.90;;;;;;;5.75;79.86;97180.59;104579;1270;97095;-80
2023/11/16 08:00:26;;;;;;;9.90;6.60;;;;;;;5.81;80.10;97184.85;104627;1270;101530;-80
2023/11/16 08:05:41;;;;;;;9.80;6.70;;;;;;;5.90;79.85;97185.13;104499;1267;100158;-72
2023/11/16 08:08:11;;;;;;;13.00;8.40;;;;;;;5.96;79.85;97187.27;104626;1271;96779;-80
2023/11/16 08:10:42;;;;;;;13.40;10.00;;;;;;;6.02;79.80;97188.20;104596;1263;98157;-80
2023/11/16 08:13:10;;;;;;;12.20;8.50;;;;;;;6.08;79.69;97190.79;104591;1270;102405;-80
2023/11/16 08:15:41;;;;;;;6.60;5.30;;;;;;;6.25;79.55;97188.55;104460;1274;101510;-79
2023/11/16 08:18:13;;;;;;;6.50;4.10;;;;;;;6.44;79.18;97186.89;104580;1270;99015;-79
2023/11/16 08:20:41;;;;;;;4.20;3.10;;;;;;;6.60;78.75;97185.98;104572;1272;96737;-80
2023/11/16 08:23:09;;;;;;;4.00;2.50;;;;;;;6.78;78.50;97180.41;104556;1263;97224;-79
2023/11/16 08:25:39;;;;;;;3.90;2.70;;;;;;;6.85;77.64;97178.09;104804;1261;100775;-73
2023/11/16 08:28:10;;;;;;;3.30;2.50;;;;;;;6.85;77.56;97179.25;105017;1257;100495;-73
2023/11/16 08:30:38;;;;;;;4.30;2.80;;;;;;;6.88;77.40;97181.05;105027;1267;99956;-78
2023/11/16 08:33:07;;;;;;;2.80;2.40;;;;;;;6.88;77.36;97175.64;104959;1257;97148;-79
2023/11/16 08:35:37;;;;;;;3.30;2.70;;;;;;;6.87;77.30;97174.98;105095;1253;97785;-79
2023/11/16 08:38:07;;;;;;;3.40;2.60;;;;;;;6.86;77.34;97170.47;105047;1257;100687;-79
2023/11/16 08:40:35;;;;;;;4.80;2.90;;;;;;;6.86;77.22;97171.70;105022;1257;100322;-80
2023/11/16 08:43:10;;;;;;;6.90;4.20;;;;;;;6.88;77.23;97173.19;104992;1256;99383;-80
2023/11/16 08:45:39;;;;;;;7.10;4.30;;;;;;;6.89;77.25;97175.63;104423;1261;97370;-74
2023/11/16 08:48:08;;;;;;;6.00;4.30;;;;;;;6.86;77.21;97172.48;105094;1266;98501;-74
2023/11/16 08:50:37;;;;;;;7.30;4.50;;;;;;;6.84;77.25;97176.06;104693;1254;100810;-75
2023/11/16 08:53:07;;;;;;;9.80;4.30;;;;;;;6.84;77.42;97175.33;104702;1260;99865;-74
2023/11/16 08:55:35;;;;;;;5.20;4.10;;;;;;;6.86;77.59;97175.63;105004;1266;99954;-73
2023/11/16 08:58:06;;;;;;;8.10;4.20;;;;;;;6.88;77.70;97176.42;105046;1254;96479;-74
2023/11/16 09:00:35;;;;;;;6.10;4.10;;;;;;;6.92;77.82;97176.93;104950;1258;97064;-74
2023/11/16 09:03:07;;;;;;;4.80;3.90;;;;;;;6.95;77.59;97180.11;105046;1266;101048;-80
2023/11/16 09:05:37;;;;;;;6.40;3.80;;;;;;;6.98;77.35;97177.34;104719;1260;100829;-72
2023/11/16 09:08:09;;;;;;;5.80;4.00;;;;;;;7.08;77.51;97175.13;104979;1257;99929;-73
2023/11/16 09:10:41;;;;;;;4.80;3.80;;;;;;;7.28;77.93;97176.02;104994;1257;96566;-73
2023/11/16 09:13:08;;;;;;;5.90;4.00;;;;;;;7.43;77.66;97168.81;104817;1260;97502;-72
2023/11/16 09:15:36;;;;;;;5.80;3.50;;;;;;;7.50;77.28;97169.30;105038;1266;100861;-73
2023/11/16 09:18:04;;;;;;;4.30;3.50;;;;;;;7.55;76.91;97170.49;105031;1257;101327;-73
2023/11/16 09:20:33;;;;;;;6.20;4.10;;;;;;;7.63;76.82;97166.89;104958;1256;99952;-73
2023/11/16 09:23:01;;;;;;;5.00;3.40;;;;;;;7.69;76.73;97166.20;104984;1258;97938;-73
2023/11/16 09:25:30;;;;;;;5.10;3.90;;;;;;;7.77;76.82;97163.38;105001;1257;98437;-73
2023/11/16 09:28:00;;;;;;;5.60;4.00;;;;;;;7.84;76.40;97161.54;105041;1256;101215;-73
2023/11/16 09:30:28;;;;;;;7.00;4.50;;;;;;;7.87;76.17;97155.89;105064;1258;101538;-79
2023/11/16 09:32:58;;;;;;;6.20;4.20;;;;;;;7.90;75.86;97153.26;104998;1257;99102;-80
2023/11/16 09:35:27;;;;;;;6.00;4.20;;;;;;;7.93;75.82;97147.81;104542;1267;96622;-79
2023/11/16 09:37:56;;;;;;;6.20;4.00;;;;;;;8.00;76.24;97143.28;105057;1256;97109;-79
2023/11/16 09:40:28;;;;;;;8.70;5.00;;;;;;;8.13;76.10;97140.73;104765;1261;101929;-80
2023/11/16 09:42:57;;;;;;;6.40;4.50;;;;;;;8.24;75.73;97137.23;104707;1260;101151;-73
2023/11/16 09:45:28;;;;;;;4.80;3.80;;;;;;;8.28;75.02;97130.80;104994;1258;99602;-73
2023/11/16 09:48:10;;;;;;;5.50;3.50;;;;;;;8.27;74.83;97129.06;104680;1254;96863;-80
2023/11/16 09:50:44;;;;;;;7.70;4.20;;;;;;;8.26;74.65;97127.95;105003;1257;97157;-80
2023/11/16 09:53:16;;;;;;;6.00;4.10;;;;;;;8.32;74.68;97125.61;104650;1260;101225;-80
2023/11/16 09:55:55;;;;;;;6.50;3.70;;;;;;;8.40;74.59;97126.43;105117;1257;101333;-80
2023/11/16 09:58:25;;;;;;;8.20;5.20;;;;;;;8.46;74.38;97125.77;104659;1270;100044;-79
2023/11/16 10:00:56;;;;;;;6.60;4.10;;;;;;;8.49;74.29;97125.11;104710;1257;96955;-80
2023/11/16 10:03:26;;;;;;;4.30;3.20;;;;;;;8.52;73.86;97119.20;104699;1258;97257;-80
2023/11/16 10:09:44;;;;;;;6.90;3.90;;;;;;;8.49;73.27;97115.27;104670;1258;99528;-79
2023/11/16 10:12:13;;;;;;;4.70;3.20;;;;;;;8.53;73.69;97111.92;104687;1270;99948;-78
2023/11/16 10:14:51;;;;;;;5.00;2.90;;;;;;;8.54;72.99;97111.19;104596;1264;96811;-78
2023/11/16 10:17:24;;;;;;;3.50;2.90;;;;;;;8.50;72.64;97109.76;104328;1264;98020;-76
2023/11/16 10:19:52;;;;;;;4.50;3.00;;;;;;;8.50;72.93;97105.63;104563;1263;101279;-75
2023/11/16 10:22:20;;;;;;;5.40;3.70;;;;;;;8.52;72.80;97101.29;104504;1264;101287;-79
2023/11/16 10:24:50;;;;;;;6.70;3.70;;;;;;;8.53;72.81;97097.19;104441;1274;98999;-78
2023/11/16 10:27:18;;;;;;;6.60;3.60;;;;;;;8.55;72.99;97095.02;104474;1258;97506;-77
2023/11/16 10:29:46;;;;;;;4.60;3.40;;;;;;;8.56;72.59;97091.98;104649;1263;98452;-78
2023/11/16 10:32:14;;;;;;;7.40;3.80;;;;;;;8.56;72.62;97091.45;104867;1269;102132;-73
2023/11/16 10:34:42;;;;;;;6.30;3.40;;;;;;;8.57;72.87;97087.84;104799;1258;101318;-73
2023/11/16 10:37:11;;;;;;;5.30;3.60;;;;;;;8.60;72.79;97083.52;104786;1267;99578;-74
2023/11/16 10:39:43;;;;;;;7.40;4.10;;;;;;;8.61;72.96;97085.27;104772;1269;97589;-74
2023/11/16 10:42:13;;;;;;;8.00;4.50;;;;;;;8.66;73.16;97084.12;104528;1257;97485;-74
2023/11/16 10:44:42;;;;;;;7.80;4.00;;;;;;;8.70;73.24;97080.99;104838;1260;102421;-74
2023/11/16 10:47:11;;;;;;;6.20;4.20;;;;;;;8.74;72.88;97079.05;104779;1270;101309;-74
2023/11/16 10:49:40;;;;;;;7.10;3.60;;;;;;;8.73;72.60;97079.67;104895;1260;99858;-74
2023/11/16 10:52:11;;;;;;;6.30;3.80;;;;;;;8.71;72.49;97077.20;104527;1264;97816;-74
2023/11/16 10:54:43;;;;;;;7.00;4.60;;;;;;;8.71;72.55;97076.15;104861;1270;97592;-74
2023/11/16 10:57:13;;;;;;;7.80;4.30;;;;;;;8.73;72.63;97070.93;104987;1257;101235;-74
2023/11/16 10:59:46;;;;;;;8.20;5.60;;;;;;;8.75;72.73;97065.69;104739;1260;101531;-80
2023/11/16 11:02:16;;;;;;;7.50;5.80;;;;;;;8.74;72.59;97061.14;105102;1266;100115;-72
2023/11/16 11:04:43;;;;;;;7.70;5.50;;;;;;;8.75;72.71;97059.23;104722;1260;97294;-73
2023/11/16 11:07:14;;;;;;;6.10;4.10;;;;;;;8.75;72.72;97057.95;104989;1254;98295;-73
2023/11/16 11:09:43;;;;;;;7.50;4.40;;;;;;;8.76;72.88;97056.70;105005;1254;102364;-73
2023/11/16 11:12:15;;;;;;;6.20;4.30;;;;;;;8.80;73.07;97055.34;104722;1260;100592;-72
2023/11/16 11:14:47;;;;;;;7.00;4.20;;;;;;;8.84;73.24;97049.04;104983;1264;100370;-73
2023/11/16 11:17:21;;;;;;;8.20;4.70;;;;;;;8.90;73.27;97041.54;104987;1258;96584;-73
2023/11/16 11:19:59;;;;;;;6.60;4.30;;;;;;;8.97;73.19;97039.04;105055;1264;97068;-73
2023/11/16 11:22:31;;;;;;;7.40;4.60;;;;;;;9.07;73.32;97041.49;104991;1258;101940;-73
2023/11/16 11:24:59;;;;;;;5.60;4.20;;;;;;;9.16;73.24;97037.79;105154;1254;100403;-73
2023/11/16 11:27:28;;;;;;;8.20;4.40;;;;;;;9.23;73.09;97034.09;104941;1264;100126;-73
2023/11/16 11:29:57;;;;;;;7.20;4.40;;;;;;;9.32;72.95;97028.70;104851;1264;96746;-73
2023/11/16 11:32:39;;;;;;;8.20;5.50;;;;;;;9.40;72.78;97028.14;105051;1268;97084;-73
2023/11/16 11:35:09;;;;;;;6.90;4.40;;;;;;;9.48;72.49;97026.13;104679;1276;102603;-73
2023/11/16 11:37:38;;;;;;;5.40;3.90;;;;;;;9.55;72.10;97024.64;104708;1270;101569;-73
2023/11/16 11:40:07;;;;;;;8.10;4.20;;;;;;;9.61;72.01;97021.52;105011;1256;98856;-73
2023/11/16 11:42:37;;;;;;;5.70;3.40;;;;;;;9.68;71.68;97020.06;105025;1256;96662;-73
2023/11/16 11:45:06;;;;;;;5.90;3.20;;;;;;;9.79;71.75;97019.55;104735;1260;97288;-73